createdAt,value
2019-03-30T00:02:20.761Z,80.60
2019-03-30T00:04:51.899Z,81.13
2019-03-30T00:07:23.025Z,80.58
2019-03-30T00:09:54.081Z,80.81
2019-03-30T00:12:25.082Z,81.17
2019-03-30T00:14:56.221Z,81.24
2019-03-30T00:17:27.308Z,81.57
2019-03-30T00:19:58.333Z,82.05
2019-03-30T00:22:29.374Z,82.61
2019-03-30T00:25:00.439Z,82.57
2019-03-30T00:27:31.648Z,82.75
2019-03-30T00:30:02.773Z,83.39
2019-03-30T00:32:33.729Z,82.86
2019-03-30T00:35:05.155Z,83.33
2019-03-30T00:37:36.120Z,83.55
2019-03-30T00:40:07.658Z,83.86
2019-03-30T00:42:38.821Z,83.87
2019-03-30T00:45:10.037Z,84.76
2019-03-30T00:47:41.081Z,85.03
2019-03-30T00:50:12.469Z,85.53
2019-03-30T00:52:43.665Z,84.42
2019-03-30T00:55:15.475Z,84.31
2019-03-30T00:57:46.513Z,84.24
2019-03-30T01:00:18.036Z,83.77
2019-03-30T01:02:49.460Z,84.65
2019-03-30T01:05:20.581Z,85.04
2019-03-30T01:07:51.773Z,85.02
2019-03-30T01:10:23.108Z,85.59
2019-03-30T01:12:54.569Z,85.90
2019-03-30T01:15:25.679Z,85.89
2019-03-30T01:17:56.785Z,86.22
2019-03-30T01:20:28.094Z,85.97
2019-03-30T01:22:59.229Z,86.53
2019-03-30T01:25:30.444Z,86.42
2019-03-30T01:28:01.551Z,86.12
2019-03-30T01:30:32.819Z,86.56
2019-03-30T01:33:03.858Z,86.36
2019-03-30T01:35:35.004Z,86.39
2019-03-30T01:38:06.189Z,86.47
2019-03-30T01:40:37.437Z,86.90
2019-03-30T01:43:08.644Z,86.97
2019-03-30T01:45:39.866Z,87.10
2019-03-30T01:48:11.067Z,87.79
2019-03-30T01:50:42.329Z,87.25
2019-03-30T01:53:13.523Z,87.71
2019-03-30T01:55:44.594Z,88.07
2019-03-30T01:58:15.787Z,87.60
2019-03-30T02:00:46.883Z,87.92
2019-03-30T02:03:18.132Z,87.12
2019-03-30T02:05:49.305Z,87.81
2019-03-30T02:08:20.441Z,87.33
2019-03-30T02:10:51.826Z,88.31
2019-03-30T02:13:23.033Z,88.31
2019-03-30T02:15:54.229Z,88.53
2019-03-30T02:18:25.446Z,87.75
2019-03-30T02:20:56.450Z,87.40
2019-03-30T02:23:27.501Z,87.66
2019-03-30T02:25:58.741Z,89.04
2019-03-30T02:28:29.922Z,87.85
2019-03-30T02:31:01.166Z,88.25
2019-03-30T02:33:32.436Z,88.16
2019-03-30T02:36:03.772Z,88.50
2019-03-30T02:38:35.037Z,87.90
2019-03-30T02:41:06.281Z,87.55
2019-03-30T02:43:37.781Z,87.83
2019-03-30T02:46:08.875Z,87.94
2019-03-30T02:48:40.016Z,87.96
2019-03-30T02:51:11.165Z,88.41
2019-03-30T02:53:42.378Z,87.89
2019-03-30T02:56:13.520Z,87.82
2019-03-30T02:58:44.664Z,87.69
2019-03-30T03:01:15.816Z,87.51
2019-03-30T03:03:47.071Z,87.05
2019-03-30T03:06:18.244Z,87.05
2019-03-30T03:08:49.339Z,87.30
2019-03-30T03:11:20.493Z,87.94
2019-03-30T03:13:51.628Z,88.21
2019-03-30T03:16:27.039Z,88.65
2019-03-30T03:18:55.822Z,88.78
2019-03-30T03:21:27.016Z,89.68
2019-03-30T03:23:58.341Z,89.52
2019-03-30T03:26:29.458Z,89.62
2019-03-30T03:29:00.486Z,90.13
2019-03-30T03:31:31.632Z,89.86
2019-03-30T03:34:02.769Z,90.34
2019-03-30T03:36:33.996Z,89.43
2019-03-30T03:39:06.407Z,89.79
2019-03-30T03:41:37.634Z,90.12
2019-03-30T03:44:08.826Z,89.47
2019-03-30T03:46:40.128Z,89.58
2019-03-30T03:49:12.605Z,89.62
2019-03-30T03:51:44.128Z,90.00
2019-03-30T03:54:15.771Z,90.49
2019-03-30T03:56:51.233Z,90.34
2019-03-30T03:59:25.992Z,90.16
2019-03-30T04:01:59.279Z,90.01
2019-03-30T04:04:36.059Z,89.23
2019-03-30T04:07:08.861Z,89.65
2019-03-30T04:09:44.708Z,89.51
2019-03-30T04:12:20.702Z,89.96
2019-03-30T04:14:54.623Z,90.40
2019-03-30T04:17:26.799Z,90.86
2019-03-30T04:19:57.863Z,91.35
2019-03-30T04:22:37.356Z,91.16
2019-03-30T04:25:08.728Z,91.09
2019-03-30T04:27:39.803Z,91.38
2019-03-30T04:30:11.316Z,91.92
2019-03-30T04:32:42.368Z,91.16
2019-03-30T04:35:20.775Z,91.51
2019-03-30T04:37:51.879Z,91.88
2019-03-30T04:40:27.098Z,91.61
2019-03-30T04:42:59.206Z,91.34
2019-03-30T04:45:30.466Z,92.08
2019-03-30T04:48:01.720Z,91.91
2019-03-30T04:50:32.846Z,92.01
2019-03-30T04:53:11.947Z,92.43
2019-03-30T04:55:43.335Z,92.74
2019-03-30T04:58:15.527Z,92.74
2019-03-30T05:00:47.878Z,92.46
2019-03-30T05:03:19.198Z,93.18
2019-03-30T05:05:50.380Z,93.44
2019-03-30T05:08:21.402Z,93.63
2019-03-30T05:10:52.672Z,92.96
2019-03-30T05:13:23.749Z,93.32
2019-03-30T05:15:54.891Z,93.54
2019-03-30T05:18:26.184Z,93.47
2019-03-30T05:20:57.354Z,94.30
2019-03-30T05:23:28.564Z,93.90
2019-03-30T05:25:59.822Z,93.85
2019-03-30T05:28:30.977Z,94.09
2019-03-30T05:31:02.156Z,93.96
2019-03-30T05:33:33.374Z,93.77
2019-03-30T05:36:04.638Z,92.92
2019-03-30T05:38:35.599Z,92.51
2019-03-30T05:41:08.787Z,91.90
2019-03-30T05:43:39.972Z,91.83
2019-03-30T05:46:11.091Z,91.21
2019-03-30T05:48:42.464Z,91.01
2019-03-30T05:51:13.644Z,90.59
2019-03-30T05:53:44.627Z,90.39
2019-03-30T05:56:15.830Z,89.66
2019-03-30T05:58:47.060Z,89.45
2019-03-30T06:01:19.252Z,89.18
2019-03-30T06:03:51.504Z,88.95
2019-03-30T06:06:22.661Z,88.28
2019-03-30T06:08:53.686Z,88.07
2019-03-30T06:11:24.831Z,87.86
2019-03-30T06:13:55.880Z,87.53
2019-03-30T06:16:27.020Z,86.76
2019-03-30T06:18:58.257Z,86.27
2019-03-30T06:21:29.354Z,85.97
2019-03-30T06:24:00.650Z,85.20
2019-03-30T06:26:31.878Z,83.86
2019-03-30T06:29:03.024Z,83.59
2019-03-30T06:31:34.309Z,83.06
2019-03-30T06:34:06.181Z,80.42
2019-03-30T06:36:37.286Z,80.82
2019-03-30T06:39:09.074Z,81.64
2019-03-30T06:41:40.360Z,81.33
2019-03-30T06:44:11.581Z,80.42
2019-03-30T06:46:42.839Z,79.83
2019-03-30T06:49:14.142Z,79.91
2019-03-30T06:51:45.558Z,79.09
2019-03-30T06:54:16.726Z,78.20
2019-03-30T06:56:47.774Z,78.07
2019-03-30T06:59:19.144Z,77.83
2019-03-30T07:01:50.465Z,77.53
2019-03-30T07:04:21.685Z,76.34
2019-03-30T07:06:53.970Z,75.90
2019-03-30T07:09:28.476Z,75.76
2019-03-30T07:12:02.863Z,74.54
2019-03-30T07:14:37.890Z,74.32
2019-03-30T07:17:12.910Z,74.07
2019-03-30T07:19:48.215Z,73.57
2019-03-30T07:22:19.475Z,72.81
2019-03-30T07:24:50.518Z,70.98
2019-03-30T07:27:21.557Z,71.63
2019-03-30T07:29:52.830Z,71.72
2019-03-30T07:32:23.882Z,71.25
2019-03-30T07:34:55.193Z,70.60
2019-03-30T07:37:26.335Z,69.92
2019-03-30T07:39:57.418Z,69.55
2019-03-30T07:42:28.577Z,68.98
2019-03-30T07:44:59.748Z,68.72
2019-03-30T07:47:30.971Z,68.42
2019-03-30T07:50:02.218Z,68.65
2019-03-30T07:52:33.321Z,67.33
2019-03-30T07:55:04.490Z,68.36
2019-03-30T07:57:35.780Z,67.41
2019-03-30T08:00:08.764Z,66.93
2019-03-30T08:02:40.211Z,65.97
2019-03-30T08:05:11.893Z,66.48
2019-03-30T08:07:43.193Z,65.34
2019-03-30T08:10:14.763Z,64.24
2019-03-30T08:12:45.886Z,63.83
2019-03-30T08:15:17.396Z,63.58
2019-03-30T08:17:48.535Z,62.74
2019-03-30T08:20:19.735Z,63.13
2019-03-30T08:22:50.979Z,62.13
2019-03-30T08:25:22.253Z,62.08
2019-03-30T08:27:53.397Z,61.98
2019-03-30T08:30:24.770Z,61.12
2019-03-30T08:32:55.914Z,61.28
2019-03-30T08:35:27.202Z,60.67
2019-03-30T08:37:58.520Z,60.87
2019-03-30T08:40:29.594Z,60.41
2019-03-30T08:43:00.829Z,60.44
2019-03-30T08:45:33.034Z,59.26
2019-03-30T08:48:04.237Z,58.82
2019-03-30T08:50:35.489Z,58.46
2019-03-30T08:53:06.812Z,58.58
2019-03-30T08:55:38.015Z,57.46
2019-03-30T08:58:09.068Z,57.66
2019-03-30T09:00:42.408Z,56.38
2019-03-30T09:03:13.739Z,56.62
2019-03-30T09:05:44.996Z,56.30
2019-03-30T09:08:16.245Z,56.01
2019-03-30T09:10:47.592Z,55.68
2019-03-30T09:13:18.622Z,55.75
2019-03-30T09:15:49.895Z,54.72
2019-03-30T09:18:20.997Z,54.22
2019-03-30T09:20:52.166Z,53.95
2019-03-30T09:23:23.234Z,53.09
2019-03-30T09:25:54.586Z,52.69
2019-03-30T09:28:25.922Z,52.86
2019-03-30T09:30:57.097Z,52.63
2019-03-30T09:33:28.322Z,51.89
2019-03-30T09:35:59.657Z,52.96
2019-03-30T09:38:30.718Z,51.35
2019-03-30T09:41:01.932Z,50.89
2019-03-30T09:43:33.227Z,51.00
2019-03-30T09:46:04.383Z,50.49
2019-03-30T09:48:35.599Z,49.68
2019-03-30T09:51:06.817Z,49.59
2019-03-30T09:53:38.018Z,48.55
2019-03-30T10:01:44.059Z,48.73
2019-03-30T10:04:22.266Z,48.00
2019-03-30T10:07:01.396Z,48.24
2019-03-30T10:10:00.107Z,47.88
2019-03-30T10:12:47.371Z,47.61
2019-03-30T10:15:26.254Z,48.12
2019-03-30T10:18:19.652Z,46.79
2019-03-30T10:21:21.453Z,45.88
2019-03-30T10:24:18.694Z,43.34
2019-03-30T10:27:13.823Z,43.47
2019-03-30T10:30:13.968Z,43.72
2019-03-30T10:32:52.829Z,43.77
2019-03-30T10:35:40.146Z,44.09
2019-03-30T10:38:19.359Z,43.84
2019-03-30T10:40:56.510Z,43.15
2019-03-30T10:43:40.056Z,42.11
2019-03-30T10:46:17.218Z,41.74
2019-03-30T10:48:53.609Z,42.71
2019-03-30T10:51:38.292Z,42.26
2019-03-30T10:54:22.439Z,42.10
2019-03-30T10:57:05.635Z,41.78
2019-03-30T10:59:49.734Z,40.35
2019-03-30T11:02:41.898Z,40.12
2019-03-30T11:05:39.837Z,40.29
2019-03-30T11:08:16.619Z,41.11
2019-03-30T11:10:55.792Z,40.51
2019-03-30T11:13:53.932Z,40.53
2019-03-30T11:16:59.891Z,39.17
2019-03-30T11:19:45.643Z,37.26
2019-03-30T11:22:42.434Z,38.37
2019-03-30T11:25:34.550Z,40.86
2019-03-30T11:28:49.246Z,40.47
2019-03-30T11:31:35.218Z,39.99
2019-03-30T11:34:15.394Z,38.99
2019-03-30T11:36:50.927Z,39.09
2019-03-30T11:39:34.103Z,37.64
2019-03-30T11:42:22.923Z,39.11
2019-03-30T11:45:09.817Z,37.87
2019-03-30T11:48:10.621Z,35.73
2019-03-30T11:51:12.098Z,36.55
2019-03-30T11:53:56.380Z,36.77
2019-03-30T11:56:54.797Z,35.67
2019-03-30T11:59:42.337Z,35.84
2019-03-30T12:02:38.611Z,36.70
2019-03-30T12:05:40.445Z,35.84
2019-03-30T12:16:48.856Z,35.34
2019-03-30T12:19:22.176Z,35.28
2019-03-30T12:22:01.994Z,31.66
2019-03-30T12:27:52.828Z,31.46
2019-03-30T12:30:24.044Z,32.47
2019-03-30T12:32:56.031Z,33.43
2019-03-30T12:35:27.370Z,34.44
2019-03-30T12:37:58.564Z,35.52
2019-03-30T12:40:29.889Z,35.89
2019-03-30T12:43:01.113Z,36.44
2019-03-30T12:45:32.327Z,35.50
2019-03-30T12:48:03.605Z,35.15
2019-03-30T12:50:34.850Z,34.02
2019-03-30T12:53:06.945Z,34.14
2019-03-30T12:55:48.732Z,33.37
2019-03-30T12:58:11.165Z,33.19
2019-03-30T13:00:42.291Z,33.95
2019-03-30T13:03:13.476Z,34.86
2019-03-30T13:05:45.457Z,34.50
2019-03-30T13:08:16.540Z,34.36
2019-03-30T13:10:47.667Z,34.33
2019-03-30T13:13:18.743Z,34.53
2019-03-30T13:15:49.847Z,34.87
2019-03-30T13:18:20.961Z,34.39
2019-03-30T13:20:52.081Z,34.09
2019-03-30T13:23:23.265Z,33.98
2019-03-30T13:26:03.434Z,34.12
2019-03-30T13:28:27.368Z,34.56
2019-03-30T13:30:58.509Z,33.63
2019-03-30T13:33:29.572Z,34.16
2019-03-30T13:36:00.607Z,33.80
2019-03-30T13:38:31.680Z,33.83
2019-03-30T13:41:02.796Z,34.16
2019-03-30T13:43:33.972Z,34.27
2019-03-30T13:46:05.257Z,33.95
2019-03-30T13:48:36.374Z,34.33
2019-03-30T13:51:07.563Z,34.08
2019-03-30T13:53:38.832Z,34.38
2019-03-30T13:56:17.139Z,33.79
2019-03-30T13:58:43.349Z,33.45
2019-03-30T14:01:14.621Z,33.33
2019-03-30T14:03:46.223Z,33.59
2019-03-30T14:06:18.007Z,33.35
2019-03-30T14:08:49.156Z,32.82
2019-03-30T14:11:20.198Z,32.51
2019-03-30T14:13:51.434Z,33.39
2019-03-30T14:16:22.592Z,32.89
2019-03-30T14:18:53.940Z,32.92
2019-03-30T14:21:25.373Z,32.87
2019-03-30T14:23:56.664Z,32.83
2019-03-30T14:26:31.598Z,33.09
2019-03-30T14:29:00.866Z,33.03
2019-03-30T14:31:32.015Z,33.23
2019-03-30T14:34:03.259Z,33.10
2019-03-30T14:36:34.451Z,32.69
2019-03-30T14:39:07.465Z,33.23
2019-03-30T14:41:38.677Z,32.73
2019-03-30T14:44:09.879Z,32.47
2019-03-30T14:46:41.034Z,32.70
2019-03-30T14:49:12.021Z,33.09
2019-03-30T14:51:43.186Z,33.25
2019-03-30T14:54:14.380Z,32.56
2019-03-30T14:56:48.102Z,32.41
2019-03-30T14:59:19.348Z,32.45
2019-03-30T15:01:51.104Z,32.79
2019-03-30T15:04:22.336Z,33.05
2019-03-30T15:06:53.460Z,32.28
2019-03-30T15:09:24.679Z,32.59
2019-03-30T15:11:55.737Z,33.01
2019-03-30T15:14:26.953Z,33.57
2019-03-30T15:16:58.089Z,32.90
2019-03-30T15:19:29.340Z,32.85
2019-03-30T15:22:00.561Z,32.88
2019-03-30T15:24:31.899Z,32.80
2019-03-30T15:27:03.168Z,32.88
2019-03-30T15:29:34.435Z,32.61
2019-03-30T15:32:05.771Z,33.04
2019-03-30T15:34:37.039Z,32.64
2019-03-30T15:37:08.176Z,33.12
2019-03-30T15:39:39.242Z,33.09
2019-03-30T15:42:10.339Z,33.13
2019-03-30T15:44:41.475Z,33.11
2019-03-30T15:47:12.682Z,33.67
2019-03-30T15:49:43.750Z,33.46
2019-03-30T15:52:14.985Z,33.43
2019-03-30T15:54:46.203Z,33.44
2019-03-30T15:57:17.549Z,33.44
2019-03-30T15:59:48.624Z,33.34
2019-03-30T16:02:20.015Z,33.28
2019-03-30T16:04:51.078Z,33.59
2019-03-30T16:07:22.203Z,33.44
2019-03-30T16:09:55.803Z,34.55
2019-03-30T16:12:27.103Z,33.40
2019-03-30T16:14:58.285Z,33.38
2019-03-30T16:17:29.500Z,33.97
2019-03-30T16:20:00.693Z,33.75
2019-03-30T16:22:32.041Z,34.48
2019-03-30T16:25:03.423Z,33.87
2019-03-30T16:27:34.595Z,34.06
2019-03-30T16:30:06.788Z,34.25
2019-03-30T16:32:37.937Z,35.26
2019-03-30T16:35:09.707Z,34.26
2019-03-30T16:37:40.911Z,34.46
2019-03-30T16:40:12.146Z,34.83
2019-03-30T16:42:43.313Z,35.04
2019-03-30T16:45:14.658Z,34.71
2019-03-30T16:47:45.976Z,34.56
2019-03-30T16:50:18.284Z,34.72
2019-03-30T16:52:49.573Z,34.88
2019-03-30T16:55:21.857Z,34.99
2019-03-30T16:57:53.102Z,35.02
2019-03-30T17:00:24.177Z,35.09
2019-03-30T17:02:55.232Z,35.49
2019-03-30T17:05:26.528Z,35.90
2019-03-30T17:07:58.003Z,36.22
2019-03-30T17:10:29.253Z,36.95
2019-03-30T17:13:00.925Z,37.20
2019-03-30T17:15:32.208Z,37.01
2019-03-30T17:18:03.776Z,37.19
2019-03-30T17:20:34.933Z,37.43
2019-03-30T17:23:06.283Z,37.76
2019-03-30T17:25:37.482Z,37.87
2019-03-30T17:28:08.706Z,36.58
2019-03-30T17:30:39.979Z,36.63
2019-03-30T17:33:11.192Z,37.16
2019-03-30T17:35:42.484Z,37.71
2019-03-30T17:38:14.816Z,38.28
2019-03-30T17:40:46.111Z,38.43
2019-03-30T17:43:17.159Z,38.84
2019-03-30T17:45:48.364Z,39.23
2019-03-30T17:48:19.568Z,39.45
2019-03-30T17:50:50.878Z,39.91
2019-03-30T17:53:21.979Z,40.39
2019-03-30T17:55:53.098Z,40.33
2019-03-30T17:58:24.293Z,40.55
2019-03-30T18:00:55.653Z,41.18
2019-03-30T18:03:26.940Z,41.48
2019-03-30T18:05:58.357Z,41.75
2019-03-30T18:08:29.539Z,41.74
2019-03-30T18:11:03.848Z,42.08
2019-03-30T18:13:36.706Z,42.69
2019-03-30T18:16:07.019Z,43.40
2019-03-30T18:18:38.319Z,44.09
2019-03-30T18:21:09.727Z,46.27
2019-03-30T18:23:41.031Z,46.55
2019-03-30T18:26:12.207Z,47.49
2019-03-30T18:28:43.390Z,47.50
2019-03-30T18:31:14.797Z,47.47
2019-03-30T18:33:46.268Z,47.98
2019-03-30T18:36:19.930Z,47.95
2019-03-30T18:38:52.254Z,47.70
2019-03-30T18:41:23.588Z,48.72
2019-03-30T18:43:55.352Z,48.85
2019-03-30T18:46:26.501Z,49.22
2019-03-30T18:48:57.738Z,49.27
2019-03-30T18:51:29.653Z,49.40
2019-03-30T18:54:01.586Z,49.80
2019-03-30T18:56:32.721Z,50.51
2019-03-30T18:59:03.952Z,50.78
2019-03-30T19:01:34.973Z,52.54
2019-03-30T19:04:06.209Z,51.90
2019-03-30T19:06:37.484Z,52.92
2019-03-30T19:09:11.318Z,53.03
2019-03-30T19:11:42.445Z,53.42
2019-03-30T19:14:13.671Z,53.91
2019-03-30T19:16:44.760Z,54.04
2019-03-30T19:19:17.156Z,54.13
2019-03-30T19:21:48.403Z,54.08
2019-03-30T19:24:19.440Z,54.49
2019-03-30T19:26:50.704Z,53.97
2019-03-30T19:29:21.813Z,53.94
2019-03-30T19:31:52.948Z,54.11
2019-03-30T19:34:24.196Z,54.11
2019-03-30T19:36:55.283Z,54.01
2019-03-30T19:39:26.351Z,54.14
2019-03-30T19:41:57.383Z,54.29
2019-03-30T19:44:28.556Z,53.74
2019-03-30T19:46:59.818Z,54.16
2019-03-30T19:49:31.130Z,53.94
2019-03-30T19:52:05.520Z,54.59
2019-03-30T19:54:35.277Z,55.06
2019-03-30T19:57:06.491Z,54.96
2019-03-30T19:59:37.762Z,55.66
2019-03-30T20:02:09.775Z,55.18
2019-03-30T20:04:41.046Z,55.23
2019-03-30T20:07:12.053Z,55.49
2019-03-30T20:09:43.129Z,56.05
2019-03-30T20:12:14.390Z,56.44
2019-03-30T20:14:45.496Z,56.44
2019-03-30T20:17:16.659Z,57.13
2019-03-30T20:19:47.859Z,57.46
2019-03-30T20:22:19.024Z,58.13
2019-03-30T20:24:50.240Z,58.05
2019-03-30T20:27:21.593Z,58.28
2019-03-30T20:29:52.516Z,58.88
2019-03-30T20:32:23.534Z,59.18
2019-03-30T20:34:54.574Z,59.38
2019-03-30T20:37:25.595Z,59.39
2019-03-30T20:39:56.925Z,59.49
2019-03-30T20:42:27.975Z,59.41
2019-03-30T20:44:59.079Z,59.97
2019-03-30T20:47:30.084Z,60.21
2019-03-30T20:50:01.334Z,60.82
2019-03-30T20:52:32.328Z,61.56
2019-03-30T20:55:03.482Z,62.05
2019-03-30T20:57:34.519Z,62.21
2019-03-30T22:07:54.151Z,65.34
2019-03-30T22:10:30.246Z,65.59
2019-03-30T22:13:01.470Z,66.20
2019-03-30T22:15:32.876Z,66.96
2019-03-30T22:18:04.140Z,67.26
2019-03-30T22:20:35.387Z,67.09
2019-03-30T22:23:06.601Z,66.96
2019-03-30T22:25:37.868Z,67.28
2019-03-30T22:28:09.092Z,67.21
2019-03-30T22:30:40.274Z,67.57
2019-03-30T22:33:11.545Z,66.96
2019-03-30T22:35:42.721Z,66.48
2019-03-30T22:38:13.946Z,66.39
2019-03-30T22:40:45.088Z,66.73
2019-03-30T22:43:16.433Z,67.37
2019-03-30T22:45:47.559Z,68.05
2019-03-30T22:48:19.798Z,68.95
2019-03-30T22:50:52.613Z,68.75
2019-03-30T22:53:23.786Z,68.79
2019-03-30T22:55:54.977Z,67.86
2019-03-30T22:58:26.137Z,67.37
2019-03-30T23:01:19.198Z,68.85
2019-03-30T23:03:50.415Z,69.86
2019-03-30T23:06:21.629Z,71.49
2019-03-30T23:08:52.633Z,72.34
2019-03-30T23:11:23.819Z,72.33
2019-03-30T23:13:55.033Z,72.74
2019-03-30T23:16:26.269Z,73.97
2019-03-30T23:18:57.470Z,73.58
2019-03-30T23:21:28.830Z,73.47
2019-03-30T23:23:59.963Z,73.36
2019-03-30T23:26:31.185Z,73.45
2019-03-30T23:29:02.229Z,73.69
2019-03-30T23:31:33.403Z,74.04
2019-03-30T23:34:04.792Z,73.79
2019-03-30T23:36:35.923Z,73.77
2019-03-30T23:39:08.798Z,73.79
2019-03-30T23:41:40.137Z,73.83
2019-03-30T23:44:11.242Z,73.87
2019-03-30T23:46:42.335Z,74.16
2019-03-30T23:49:13.565Z,73.80
2019-03-30T23:51:44.896Z,73.28
2019-03-30T23:54:18.175Z,73.40
2019-03-30T23:56:49.365Z,72.77
2019-03-30T23:59:20.648Z,72.81
